SBPB/PHB METAR and TAF weather

Enter ICAO airport designator
Station Type Date Time Source
SBPB METAR 2020/01/22 19:45 UTC NOAA

SBPB 221945Z 04008KT 9999 SCT017 29/25 Q1007


Station Type Date Time Source
SBPB Decoded METAR 2020/01/22 19:45 UTC NOAA

Parnaiba Aeroporto , Brazil (SBPB) 02-55S 041-45W
Jan 22, 2020 - 02:45 PM EST / 2020.01.22 1945 UTC
Wind: from the NE (040 degrees) at 9 MPH (8 KT):0
Visibility: greater than 7 mile(s):0
Sky conditions: partly cloudy
Temperature: 84 F (29 C)
Dew Point: 77 F (25 C)
Relative Humidity: 79%
Pressure (altimeter): 29.74 in. Hg (1007 hPa)
ob: SBPB 221945Z 04008KT 9999 SCT017 29/25 Q1007
cycle: 20

Station Type Date Time Source
SBPB TAF 2020/01/23 06:21 UTC NOAA

TAF SBPB 230400Z 2306/2318 06010KT 9999 SCT017 TN26/2306Z TX31/2315Z
RMK PEH

Example: see airport list